首页
METAR-TAF:

METAR-TAF

机场 :

劳德代尔堡-好莱坞国际机场

劳德代尔堡, 佛罗里达州, 美国

纬度: 26-04-05N, 经度: 080-09-09W, 海拔: 3米

当前天气观测

该预报发布于25分钟前的10:53 UTC
风速13节,风向
温度 28°C
湿度 74%
气压 1014 hPa
能見度: 16.1公里
少量云层高于2500英尺
散云层高于4500英尺
多云层高于6500英尺

METAR: KFLL 191053Z 10013KT 10SM FEW025 SCT045 BKN065 28/23 A2995 RMK AO2 SLP139 T02830233 $

时间: 07:18 (11:18 UTC)

预报

该预报发布于2小时和47分钟前的08:31 UTC
预报有效从19日的 09点(UTC)到 20日的 12点(UTC)
风速12节,风向
能見度: 10公里
少量云层高于2500英尺
散云层高于5000英尺
从 19日的 1200点(UTC)
风速14节,风向,有时为24节阵风
能見度: 10公里
散云层高于2500英尺
多云层高于5000英尺
附近有阵雨
从 19日的 1700点(UTC)
风速16节,风向,有时为26节阵风
能見度: 10公里
散云层高于2500英尺, 积雨云.
多云层高于5000英尺
附近有雷暴
从 19日的 2100点(UTC)
风速15节,风向东转东北,有时为25节阵风
能見度: 10公里
散云层高于3000英尺
散云层高于5000英尺
附近有阵雨
从 20日的 0100点(UTC)
风速14节,风向
能見度: 10公里
散云层高于5000英尺
散云层高于25000英尺

TAF: KFLL 190831Z 1909/2012 10012KT P6SM FEW025 SCT050 FM191200 09014G24KT P6SM VCSH SCT025 BKN050 FM191700 08016G26KT P6SM VCTS SCT025CB BKN050 FM192100 07015G25KT P6SM VCSH SCT030 SCT050 FM200100 09014KT P6SM SCT050 SCT250

超过4000个机场的气象观测和天气预报(METAR&TAF报告)。

可查询的气象台以黄色和红色小点在地图上表示。

将鼠标移到小点上方,可查看气象台名称。

然后点击查看天气观测和预报。

如需切换地图:点击带黑十字的绿色按钮放大地图;点击带横线的绿色按钮缩小地图;或者点击绿色箭头查看邻近地区的地图。


METAR-TAF: